OIBA  Abumusa Island  Airport

Iran

Add Bookmark
ICAO OIBA
IATA AEU
Type Airport
Status Operational
Latitude
25° 52' 32" N
25.875700
Longitude
55° 1' 58" E
55.033001
Local (GMT +3.5 ) UTC
Dec 6, 2016 04:14 am Dec 6, 2016 00:44
Sunrise-Sunset Local UTC
Begin Civil Twilight 05:57 am 02:27
Sunrise 06:22 am 02:52
Sunset 05:00 pm 13:30
End Civil Twilight 05:25 pm 13:55
VFR
VFR
MVFR
MVFR
IFR
IFR
LIFR
LIFR
Unknown
No Data

Current Weather

METAR Observed IFR
OIBA 051500Z 01006KT 3500 BR NSC 26/25 Q1014 Mon, Dec 5, 2016 @ 15:00 UTC
(9 Hours, 44 Minutes ago)
Instrument Flight Rules
Wind Visibility Conditions
010° at 6 knots (11 kph) 3,492 m
  • Mist
Temperatures Readings Precipitation
Current Temp
26°C
79°F
Dewpoint
25°C
77°F
Humidity 94%
Altimeter 29.94" Hg
Sea Level Pressure 1,014 mb
Field Elevation
7 m
23 ft
None Recorded

Additional weather within a 92.6km radius of OIBA

Map ICAO Location
OIBS 49.4km W (274°)
OIBL 75.9km N/NW (344°)
OMDB 76.9km S/SE (154°)
OMSJ 77.8km SE (141°)
VFR
VFR
MVFR
MVFR
IFR
IFR
LIFR
LIFR
Unknown
No Data
-
-

CheckWX.com is intended as a tool to help pilots better visualize weather data. It is not intended as a substitute for an official weather briefing obtained from a Flight Service Station. CheckWX.com does not meet the FAA requirements for an official pre-flight weather briefing. Therefore, it's important that pilots still call and obtain an official FSS pre-flight weather briefing.

© 2007-2016 CheckWX.com
00:44:07 UTC